sensor_id;sensor_type;location;lat;lon;timestamp;pressure;altitude;pressure_sealevel;temperature;humidity
62942;BME280;49042;47.318;19.874;2023-12-22T06:18:36;98282.31;;;4.68;100.00
62942;BME280;49042;47.318;19.874;2023-12-22T06:21:38;98287.44;;;4.67;100.00
62942;BME280;49042;47.318;19.874;2023-12-22T06:24:40;98294.03;;;4.52;100.00
62942;BME280;49042;47.318;19.874;2023-12-22T06:27:42;98309.50;;;4.50;100.00
62942;BME280;49042;47.318;19.874;2023-12-22T06:30:43;98305.72;;;4.78;100.00
62942;BME280;49042;47.318;19.874;2023-12-22T06:33:50;98303.25;;;4.82;100.00
62942;BME280;49042;47.318;19.874;2023-12-22T06:36:52;98310.88;;;4.76;100.00
62942;BME280;49042;47.318;19.874;2023-12-22T06:39:54;98318.69;;;4.79;100.00
62942;BME280;49042;47.318;19.874;2023-12-22T06:42:55;98329.06;;;4.84;100.00
62942;BME280;49042;47.318;19.874;2023-12-22T06:45:57;98345.16;;;4.70;100.00
62942;BME280;49042;47.318;19.874;2023-12-22T06:48:59;98351.47;;;4.84;100.00
62942;BME280;49042;47.318;19.874;2023-12-22T06:52:05;98364.56;;;4.93;100.00
62942;BME280;49042;47.318;19.874;2023-12-22T06:55:07;98369.03;;;5.00;100.00
62942;BME280;49042;47.318;19.874;2023-12-22T06:58:09;98369.31;;;5.14;100.00
62942;BME280;49042;47.318;19.874;2023-12-22T07:01:10;98377.44;;;5.35;100.00
62942;BME280;49042;47.318;19.874;2023-12-22T07:04:12;98380.38;;;5.55;100.00
62942;BME280;49042;47.318;19.874;2023-12-22T07:07:14;98390.22;;;5.77;100.00
62942;BME280;49042;47.318;19.874;2023-12-22T07:10:16;98382.88;;;6.02;100.00
62942;BME280;49042;47.318;19.874;2023-12-22T07:13:17;98394.19;;;6.07;100.00
62942;BME280;49042;47.318;19.874;2023-12-22T07:16:19;98386.06;;;6.40;100.00
62942;BME280;49042;47.318;19.874;2023-12-22T07:19:21;98375.50;;;6.90;100.00
62942;BME280;49042;47.318;19.874;2023-12-22T07:22:24;98368.25;;;7.37;100.00
62942;BME280;49042;47.318;19.874;2023-12-22T07:25:25;98352.50;;;7.16;100.00
62942;BME280;49042;47.318;19.874;2023-12-22T07:28:27;98356.78;;;7.13;100.00
62942;BME280;49042;47.318;19.874;2023-12-22T07:31:29;98359.47;;;7.24;100.00
62942;BME280;49042;47.318;19.874;2023-12-22T07:34:31;98349.19;;;7.33;100.00
62942;BME280;49042;47.318;19.874;2023-12-22T07:37:35;98362.28;;;7.46;100.00
62942;BME280;49042;47.318;19.874;2023-12-22T07:40:39;98374.31;;;7.39;100.00
62942;BME280;49042;47.318;19.874;2023-12-22T07:43:41;98375.09;;;7.30;100.00
62942;BME280;49042;47.318;19.874;2023-12-22T07:46:43;98388.66;;;7.07;100.00
62942;BME280;49042;47.318;19.874;2023-12-22T07:49:45;98390.34;;;7.02;100.00
62942;BME280;49042;47.318;19.874;2023-12-22T07:52:48;98398.06;;;7.00;100.00
62942;BME280;49042;47.318;19.874;2023-12-22T07:55:51;98393.00;;;7.06;100.00
62942;BME280;49042;47.318;19.874;2023-12-22T07:58:53;98399.78;;;6.98;100.00
62942;BME280;49042;47.318;19.874;2023-12-22T08:02:09;98394.06;;;7.24;100.00
62942;BME280;49042;47.318;19.874;2023-12-22T08:05:11;98389.47;;;7.84;94.64
62942;BME280;49042;47.318;19.874;2023-12-22T08:08:13;98386.34;;;8.31;83.15
62942;BME280;49042;47.318;19.874;2023-12-22T08:11:14;98376.03;;;8.40;79.87
62942;BME280;49042;47.318;19.874;2023-12-22T08:14:16;98379.41;;;8.27;78.92
62942;BME280;49042;47.318;19.874;2023-12-22T08:17:17;98392.00;;;9.14;72.19
62942;BME280;49042;47.318;19.874;2023-12-22T08:20:20;98395.53;;;10.91;58.31
62942;BME280;49042;47.318;19.874;2023-12-22T08:23:29;98398.97;;;12.38;52.17
62942;BME280;49042;47.318;19.874;2023-12-22T08:26:32;98406.06;;;12.24;48.77
62942;BME280;49042;47.318;19.874;2023-12-22T08:29:34;98417.69;;;11.77;50.75
62942;BME280;49042;47.318;19.874;2023-12-22T08:32:36;98428.44;;;13.32;45.49
62942;BME280;49042;47.318;19.874;2023-12-22T08:35:38;98428.97;;;12.88;47.48
62942;BME280;49042;47.318;19.874;2023-12-22T08:38:40;98431.50;;;12.98;46.06
62942;BME280;49042;47.318;19.874;2023-12-22T08:41:42;98435.09;;;13.58;43.59
62942;BME280;49042;47.318;19.874;2023-12-22T08:44:45;98447.41;;;14.69;41.19
62942;BME280;49042;47.318;19.874;2023-12-22T08:47:47;98432.41;;;16.40;38.37
62942;BME280;49042;47.318;19.874;2023-12-22T08:50:49;98433.25;;;16.76;36.60
62942;BME280;49042;47.318;19.874;2023-12-22T08:53:52;98442.50;;;17.55;35.00
62942;BME280;49042;47.318;19.874;2023-12-22T08:56:56;98444.97;;;18.72;32.90
62942;BME280;49042;47.318;19.874;2023-12-22T08:59:58;98451.75;;;18.79;32.27
62942;BME280;49042;47.318;19.874;2023-12-22T09:02:59;98452.69;;;19.02;31.35
62942;BME280;49042;47.318;19.874;2023-12-22T09:06:01;98457.94;;;19.76;30.63
62942;BME280;49042;47.318;19.874;2023-12-22T09:09:03;98458.88;;;20.85;29.55
62942;BME280;49042;47.318;19.874;2023-12-22T09:12:05;98455.22;;;21.68;28.35
62942;BME280;49042;47.318;19.874;2023-12-22T09:15:07;98463.84;;;20.51;28.51
62942;BME280;49042;47.318;19.874;2023-12-22T09:18:09;98467.88;;;21.02;28.40
62942;BME280;49042;47.318;19.874;2023-12-22T09:21:11;98480.25;;;18.95;30.33
62942;BME280;49042;47.318;19.874;2023-12-22T09:24:12;98477.81;;;16.84;34.31
62942;BME280;49042;47.318;19.874;2023-12-22T09:27:14;98478.56;;;16.17;35.46
62942;BME280;49042;47.318;19.874;2023-12-22T09:30:16;98483.06;;;16.50;36.47
62942;BME280;49042;47.318;19.874;2023-12-22T09:33:17;98492.25;;;13.96;39.49
62942;BME280;49042;47.318;19.874;2023-12-22T09:36:20;98496.25;;;13.56;42.13
62942;BME280;49042;47.318;19.874;2023-12-22T09:39:22;98486.94;;;15.54;40.03
62942;BME280;49042;47.318;19.874;2023-12-22T09:42:25;98481.34;;;16.47;36.20
62942;BME280;49042;47.318;19.874;2023-12-22T09:45:27;98473.41;;;13.70;41.92
62942;BME280;49042;47.318;19.874;2023-12-22T09:48:30;98480.50;;;11.58;45.23
62942;BME280;49042;47.318;19.874;2023-12-22T09:51:33;98477.03;;;11.53;47.69
62942;BME280;49042;47.318;19.874;2023-12-22T09:54:37;98462.47;;;10.94;48.59
62942;BME280;49042;47.318;19.874;2023-12-22T09:57:39;98455.56;;;10.28;49.31
62942;BME280;49042;47.318;19.874;2023-12-22T10:00:42;98452.97;;;10.31;50.63
62942;BME280;49042;47.318;19.874;2023-12-22T10:03:43;98448.63;;;10.21;51.17
62942;BME280;49042;47.318;19.874;2023-12-22T10:06:49;98431.25;;;10.31;50.79
62942;BME280;49042;47.318;19.874;2023-12-22T10:09:52;98430.34;;;14.94;42.26
62942;BME280;49042;47.318;19.874;2023-12-22T10:12:56;98430.25;;;17.23;36.19
62942;BME280;49042;47.318;19.874;2023-12-22T10:15:58;98432.78;;;17.86;35.13
62942;BME280;49042;47.318;19.874;2023-12-22T10:19:01;98421.25;;;18.96;32.79
62942;BME280;49042;47.318;19.874;2023-12-22T10:22:03;98410.78;;;15.90;37.07
62942;BME280;49042;47.318;19.874;2023-12-22T10:25:05;98431.06;;;15.85;36.95
62942;BME280;49042;47.318;19.874;2023-12-22T10:28:11;98410.50;;;14.28;40.63
62942;BME280;49042;47.318;19.874;2023-12-22T10:31:17;98405.88;;;12.46;44.13
62942;BME280;49042;47.318;19.874;2023-12-22T10:34:19;98396.88;;;11.69;48.28
62942;BME280;49042;47.318;19.874;2023-12-22T10:37:21;98397.88;;;11.51;49.81
62942;BME280;49042;47.318;19.874;2023-12-22T10:40:24;98396.12;;;11.50;49.69
62942;BME280;49042;47.318;19.874;2023-12-22T10:43:27;98396.88;;;11.72;51.45
62942;BME280;49042;47.318;19.874;2023-12-22T10:46:30;98393.47;;;11.56;49.91
62942;BME280;49042;47.318;19.874;2023-12-22T10:49:36;98401.63;;;10.91;51.21
62942;BME280;49042;47.318;19.874;2023-12-22T10:52:38;98433.72;;;9.41;68.42
62942;BME280;49042;47.318;19.874;2023-12-22T10:55:39;98414.59;;;9.21;91.61
62942;BME280;49042;47.318;19.874;2023-12-22T10:58:42;98436.91;;;8.75;100.00
62942;BME280;49042;47.318;19.874;2023-12-22T11:01:45;98452.50;;;8.77;100.00
62942;BME280;49042;47.318;19.874;2023-12-22T11:05:04;98447.41;;;8.99;100.00
62942;BME280;49042;47.318;19.874;2023-12-22T11:08:11;98435.25;;;8.95;96.36
62942;BME280;49042;47.318;19.874;2023-12-22T11:11:16;98443.19;;;9.26;94.58
62942;BME280;49042;47.318;19.874;2023-12-22T11:14:23;98428.50;;;9.31;87.00
62942;BME280;49042;47.318;19.874;2023-12-22T11:17:26;98424.28;;;9.74;86.29
62942;BME280;49042;47.318;19.874;2023-12-22T11:20:29;98413.88;;;9.98;83.13
62942;BME280;49042;47.318;19.874;2023-12-22T11:23:35;98390.44;;;10.06;78.99
62942;BME280;49042;47.318;19.874;2023-12-22T11:26:38;98411.25;;;10.34;76.81
62942;BME280;49042;47.318;19.874;2023-12-22T11:29:42;98409.53;;;10.35;78.74
62942;BME280;49042;47.318;19.874;2023-12-22T11:32:45;98399.97;;;10.21;75.05
62942;BME280;49042;47.318;19.874;2023-12-22T11:35:48;98405.19;;;10.31;76.61
62942;BME280;49042;47.318;19.874;2023-12-22T11:38:51;98409.50;;;10.49;72.33
62942;BME280;49042;47.318;19.874;2023-12-22T11:41:54;98404.19;;;10.98;65.82
62942;BME280;49042;47.318;19.874;2023-12-22T11:44:57;98387.34;;;11.63;64.33
62942;BME280;49042;47.318;19.874;2023-12-22T11:48:09;98375.34;;;11.31;60.16
62942;BME280;49042;47.318;19.874;2023-12-22T11:51:13;98375.63;;;10.66;58.68
62942;BME280;49042;47.318;19.874;2023-12-22T11:54:47;98381.69;;;10.49;58.54
62942;BME280;49042;47.318;19.874;2023-12-22T11:57:49;98395.63;;;10.37;60.15
62942;BME280;49042;47.318;19.874;2023-12-22T12:00:52;98400.81;;;10.25;63.30
62942;BME280;49042;47.318;19.874;2023-12-22T12:03:57;98398.22;;;9.96;62.40
62942;BME280;49042;47.318;19.874;2023-12-22T12:10:51;98421.63;;;9.62;66.88
62942;BME280;49042;47.318;19.874;2023-12-22T12:14:07;98409.53;;;10.33;64.12
62942;BME280;49042;47.318;19.874;2023-12-22T12:17:15;98412.09;;;10.50;61.59
62942;BME280;49042;47.318;19.874;2023-12-22T12:20:21;98388.69;;;10.33;62.34
62942;BME280;49042;47.318;19.874;2023-12-22T12:23:24;98384.34;;;9.77;68.64
62942;BME280;49042;47.318;19.874;2023-12-22T12:26:27;98381.72;;;9.60;66.35
62942;BME280;49042;47.318;19.874;2023-12-22T12:29:32;98394.72;;;9.50;66.17
62942;BME280;49042;47.318;19.874;2023-12-22T12:32:35;98386.91;;;9.52;65.51
62942;BME280;49042;47.318;19.874;2023-12-22T12:35:41;98405.12;;;9.61;67.41
62942;BME280;49042;47.318;19.874;2023-12-22T12:39:01;98406.72;;;9.12;65.59
62942;BME280;49042;47.318;19.874;2023-12-22T12:42:10;98409.19;;;8.79;66.61
62942;BME280;49042;47.318;19.874;2023-12-22T12:45:21;98407.44;;;8.72;70.04
62942;BME280;49042;47.318;19.874;2023-12-22T12:48:23;98412.47;;;8.53;72.92
62942;BME280;49042;47.318;19.874;2023-12-22T12:51:25;98409.88;;;8.51;73.75
62942;BME280;49042;47.318;19.874;2023-12-22T12:54:27;98428.88;;;8.45;73.79
62942;BME280;49042;47.318;19.874;2023-12-22T12:57:29;98417.69;;;8.56;68.02
62942;BME280;49042;47.318;19.874;2023-12-22T13:00:32;98431.81;;;8.99;69.32
62942;BME280;49042;47.318;19.874;2023-12-22T13:03:54;98433.50;;;8.86;66.68
62942;BME280;49042;47.318;19.874;2023-12-22T13:06:56;98424.75;;;8.71;67.41
62942;BME280;49042;47.318;19.874;2023-12-22T13:10:00;98425.69;;;8.87;67.62
62942;BME280;49042;47.318;19.874;2023-12-22T13:13:02;98417.22;;;9.31;66.97
62942;BME280;49042;47.318;19.874;2023-12-22T13:16:04;98412.97;;;9.69;65.44
62942;BME280;49042;47.318;19.874;2023-12-22T13:19:07;98405.16;;;9.77;62.29
62942;BME280;49042;47.318;19.874;2023-12-22T13:22:09;98412.03;;;9.32;64.39
62942;BME280;49042;47.318;19.874;2023-12-22T13:25:11;98416.34;;;9.30;65.92
62942;BME280;49042;47.318;19.874;2023-12-22T13:28:13;98417.19;;;9.21;68.69
62942;BME280;49042;47.318;19.874;2023-12-22T13:31:15;98424.00;;;8.93;70.85
62942;BME280;49042;47.318;19.874;2023-12-22T13:34:19;98431.63;;;8.66;74.79
62942;BME280;49042;47.318;19.874;2023-12-22T13:37:21;98438.44;;;8.50;77.16
62942;BME280;49042;47.318;19.874;2023-12-22T13:40:25;98501.41;;;8.20;80.33
62942;BME280;49042;47.318;19.874;2023-12-22T13:43:29;98522.78;;;6.60;100.00
62942;BME280;49042;47.318;19.874;2023-12-22T13:46:31;98566.38;;;5.88;100.00
62942;BME280;49042;47.318;19.874;2023-12-22T13:49:33;98597.84;;;5.66;100.00
62942;BME280;49042;47.318;19.874;2023-12-22T13:52:36;98586.41;;;5.16;100.00
62942;BME280;49042;47.318;19.874;2023-12-22T13:55:37;98554.44;;;5.12;100.00
62942;BME280;49042;47.318;19.874;2023-12-22T13:58:47;98556.50;;;4.87;100.00
62942;BME280;49042;47.318;19.874;2023-12-22T14:01:49;98530.53;;;4.82;100.00
62942;BME280;49042;47.318;19.874;2023-12-22T14:04:51;98523.88;;;4.92;100.00
62942;BME280;49042;47.318;19.874;2023-12-22T14:07:54;98496.69;;;4.70;100.00
62942;BME280;49042;47.318;19.874;2023-12-22T14:10:56;98491.81;;;4.84;100.00
62942;BME280;49042;47.318;19.874;2023-12-22T14:13:58;98492.87;;;4.54;100.00
62942;BME280;49042;47.318;19.874;2023-12-22T14:16:59;98479.25;;;4.61;100.00
62942;BME280;49042;47.318;19.874;2023-12-22T14:20:02;98479.94;;;4.52;100.00
62942;BME280;49042;47.318;19.874;2023-12-22T14:23:04;98481.38;;;4.41;100.00
62942;BME280;49042;47.318;19.874;2023-12-22T14:26:05;98477.13;;;4.43;100.00
62942;BME280;49042;47.318;19.874;2023-12-22T14:29:07;98476.94;;;4.74;100.00
62942;BME280;49042;47.318;19.874;2023-12-22T14:32:12;98467.03;;;4.54;100.00
62942;BME280;49042;47.318;19.874;2023-12-22T14:35:16;98468.97;;;4.25;100.00
62942;BME280;49042;47.318;19.874;2023-12-22T14:38:18;98463.44;;;4.47;100.00
62942;BME280;49042;47.318;19.874;2023-12-22T14:41:19;98460.47;;;4.30;100.00
62942;BME280;49042;47.318;19.874;2023-12-22T14:44:21;98459.22;;;4.13;100.00
62942;BME280;49042;47.318;19.874;2023-12-22T14:47:23;98453.06;;;4.08;100.00
62942;BME280;49042;47.318;19.874;2023-12-22T14:50:25;98446.31;;;4.13;100.00
62942;BME280;49042;47.318;19.874;2023-12-22T14:53:26;98457.47;;;3.78;100.00
62942;BME280;49042;47.318;19.874;2023-12-22T14:56:29;98465.41;;;3.86;100.00
62942;BME280;49042;47.318;19.874;2023-12-22T14:59:31;98461.84;;;3.81;100.00
62942;BME280;49042;47.318;19.874;2023-12-22T15:02:33;98473.03;;;3.81;100.00
62942;BME280;49042;47.318;19.874;2023-12-22T15:05:35;98480.44;;;3.69;100.00
62942;BME280;49042;47.318;19.874;2023-12-22T15:08:38;98496.91;;;3.43;100.00
62942;BME280;49042;47.318;19.874;2023-12-22T15:11:44;98519.03;;;3.66;100.00
62942;BME280;49042;47.318;19.874;2023-12-22T15:14:47;98509.91;;;3.46;100.00
62942;BME280;49042;47.318;19.874;2023-12-22T15:17:48;98515.00;;;3.75;100.00
62942;BME280;49042;47.318;19.874;2023-12-22T15:20:51;98515.56;;;3.65;100.00
62942;BME280;49042;47.318;19.874;2023-12-22T15:23:52;98496.19;;;3.80;100.00
62942;BME280;49042;47.318;19.874;2023-12-22T15:26:54;98494.72;;;3.88;100.00
62942;BME280;49042;47.318;19.874;2023-12-22T15:29:56;98482.88;;;3.96;100.00
62942;BME280;49042;47.318;19.874;2023-12-22T15:32:58;98465.69;;;3.97;100.00
62942;BME280;49042;47.318;19.874;2023-12-22T15:35:59;98465.00;;;4.03;100.00
62942;BME280;49042;47.318;19.874;2023-12-22T15:39:01;98443.28;;;3.94;100.00
62942;BME280;49042;47.318;19.874;2023-12-22T15:42:03;98460.44;;;3.94;100.00
62942;BME280;49042;47.318;19.874;2023-12-22T15:45:05;98484.56;;;3.96;100.00
62942;BME280;49042;47.318;19.874;2023-12-22T15:48:07;98509.75;;;4.06;100.00
62942;BME280;49042;47.318;19.874;2023-12-22T15:51:10;98515.72;;;4.04;100.00
62942;BME280;49042;47.318;19.874;2023-12-22T15:54:15;98507.41;;;4.14;100.00
62942;BME280;49042;47.318;19.874;2023-12-22T15:57:18;98496.09;;;4.09;100.00
62942;BME280;49042;47.318;19.874;2023-12-22T16:00:20;98500.75;;;4.24;100.00
62942;BME280;49042;47.318;19.874;2023-12-22T16:03:22;98503.25;;;4.20;100.00
62942;BME280;49042;47.318;19.874;2023-12-22T16:06:24;98476.81;;;4.67;100.00
62942;BME280;49042;47.318;19.874;2023-12-22T16:09:26;98480.91;;;4.57;100.00
62942;BME280;49042;47.318;19.874;2023-12-22T16:12:27;98500.75;;;4.60;100.00
62942;BME280;49042;47.318;19.874;2023-12-22T16:15:29;98508.50;;;4.60;100.00
62942;BME280;49042;47.318;19.874;2023-12-22T16:18:31;98525.94;;;4.69;100.00
62942;BME280;49042;47.318;19.874;2023-12-22T16:21:33;98525.19;;;4.75;100.00
62942;BME280;49042;47.318;19.874;2023-12-22T16:24:41;98514.69;;;4.67;100.00
62942;BME280;49042;47.318;19.874;2023-12-22T16:27:43;98499.69;;;4.89;100.00
62942;BME280;49042;47.318;19.874;2023-12-22T16:30:45;98513.34;;;4.85;100.00
62942;BME280;49042;47.318;19.874;2023-12-22T16:33:47;98513.59;;;4.96;100.00
62942;BME280;49042;47.318;19.874;2023-12-22T16:36:49;98511.03;;;4.96;100.00
62942;BME280;49042;47.318;19.874;2023-12-22T16:39:52;98521.34;;;4.94;100.00
62942;BME280;49042;47.318;19.874;2023-12-22T16:42:54;98530.66;;;4.87;100.00
62942;BME280;49042;47.318;19.874;2023-12-22T16:45:56;98527.12;;;4.84;100.00
62942;BME280;49042;47.318;19.874;2023-12-22T16:48:57;98538.56;;;4.95;100.00
62942;BME280;49042;47.318;19.874;2023-12-22T16:51:59;98543.53;;;4.86;100.00
62942;BME280;49042;47.318;19.874;2023-12-22T16:55:01;98549.75;;;4.94;100.00
62942;BME280;49042;47.318;19.874;2023-12-22T16:58:03;98548.75;;;4.89;100.00
62942;BME280;49042;47.318;19.874;2023-12-22T17:01:05;98550.72;;;4.99;100.00
62942;BME280;49042;47.318;19.874;2023-12-22T17:04:26;98558.16;;;4.85;100.00
62942;BME280;49042;47.318;19.874;2023-12-22T17:07:28;98566.84;;;4.87;100.00
62942;BME280;49042;47.318;19.874;2023-12-22T17:10:36;98559.22;;;4.95;100.00
62942;BME280;49042;47.318;19.874;2023-12-22T17:13:38;98552.03;;;4.81;100.00
62942;BME280;49042;47.318;19.874;2023-12-22T17:16:40;98559.69;;;4.77;100.00
62942;BME280;49042;47.318;19.874;2023-12-22T17:19:42;98556.69;;;4.97;100.00
62942;BME280;49042;47.318;19.874;2023-12-22T17:22:43;98557.34;;;4.88;100.00
62942;BME280;49042;47.318;19.874;2023-12-22T17:25:45;98555.72;;;4.91;100.00
62942;BME280;49042;47.318;19.874;2023-12-22T17:28:57;98551.34;;;4.87;100.00
62942;BME280;49042;47.318;19.874;2023-12-22T17:32:00;98551.94;;;4.77;100.00
62942;BME280;49042;47.318;19.874;2023-12-22T17:35:08;98565.81;;;4.80;100.00
62942;BME280;49042;47.318;19.874;2023-12-22T17:38:10;98571.13;;;4.88;100.00
62942;BME280;49042;47.318;19.874;2023-12-22T17:41:12;98563.25;;;4.82;100.00
62942;BME280;49042;47.318;19.874;2023-12-22T17:44:13;98552.09;;;4.85;100.00
62942;BME280;49042;47.318;19.874;2023-12-22T17:47:15;98560.72;;;4.84;100.00
62942;BME280;49042;47.318;19.874;2023-12-22T17:50:17;98564.19;;;4.86;100.00
62942;BME280;49042;47.318;19.874;2023-12-22T17:53:19;98575.53;;;4.92;100.00
62942;BME280;49042;47.318;19.874;2023-12-22T17:56:26;98572.19;;;4.97;100.00
62942;BME280;49042;47.318;19.874;2023-12-22T17:59:28;98572.31;;;5.01;100.00
62942;BME280;49042;47.318;19.874;2023-12-22T18:02:29;98553.94;;;4.89;100.00
62942;BME280;49042;47.318;19.874;2023-12-22T18:05:31;98538.41;;;4.87;100.00
62942;BME280;49042;47.318;19.874;2023-12-22T18:08:33;98527.94;;;5.21;100.00
62942;BME280;49042;47.318;19.874;2023-12-22T18:11:39;98540.44;;;5.01;100.00
62942;BME280;49042;47.318;19.874;2023-12-22T18:14:41;98544.75;;;5.02;100.00
62942;BME280;49042;47.318;19.874;2023-12-22T18:17:43;98532.34;;;5.25;100.00
62942;BME280;49042;47.318;19.874;2023-12-22T18:20:45;98531.28;;;5.16;100.00
62942;BME280;49042;47.318;19.874;2023-12-22T18:23:47;98543.09;;;5.06;100.00
62942;BME280;49042;47.318;19.874;2023-12-22T18:26:48;98545.53;;;4.98;100.00
62942;BME280;49042;47.318;19.874;2023-12-22T18:29:50;98564.00;;;4.76;100.00
62942;BME280;49042;47.318;19.874;2023-12-22T18:32:52;98559.72;;;4.78;100.00
62942;BME280;49042;47.318;19.874;2023-12-22T18:35:53;98560.72;;;4.84;100.00
62942;BME280;49042;47.318;19.874;2023-12-22T18:38:56;98576.34;;;4.90;100.00
62942;BME280;49042;47.318;19.874;2023-12-22T18:41:59;98581.53;;;4.91;100.00
62942;BME280;49042;47.318;19.874;2023-12-22T18:45:01;98586.50;;;4.82;100.00
62942;BME280;49042;47.318;19.874;2023-12-22T18:48:03;98588.88;;;4.73;100.00
62942;BME280;49042;47.318;19.874;2023-12-22T18:51:05;98574.41;;;4.81;100.00
62942;BME280;49042;47.318;19.874;2023-12-22T18:54:07;98595.19;;;4.86;100.00
62942;BME280;49042;47.318;19.874;2023-12-22T18:57:10;98596.28;;;4.96;100.00
62942;BME280;49042;47.318;19.874;2023-12-22T19:00:12;98612.88;;;5.06;100.00
62942;BME280;49042;47.318;19.874;2023-12-22T19:03:14;98604.66;;;4.85;100.00
62942;BME280;49042;47.318;19.874;2023-12-22T19:06:16;98603.94;;;4.91;100.00
62942;BME280;49042;47.318;19.874;2023-12-22T19:09:18;98614.97;;;4.85;100.00
62942;BME280;49042;47.318;19.874;2023-12-22T19:12:20;98606.63;;;4.96;100.00
62942;BME280;49042;47.318;19.874;2023-12-22T19:15:22;98604.56;;;4.80;100.00
62942;BME280;49042;47.318;19.874;2023-12-22T19:18:25;98601.69;;;5.05;100.00
62942;BME280;49042;47.318;19.874;2023-12-22T19:21:28;98595.88;;;4.78;100.00
62942;BME280;49042;47.318;19.874;2023-12-22T19:24:29;98599.22;;;4.74;100.00
62942;BME280;49042;47.318;19.874;2023-12-22T19:27:33;98598.25;;;4.70;100.00
62942;BME280;49042;47.318;19.874;2023-12-22T19:30:36;98591.97;;;4.59;100.00
62942;BME280;49042;47.318;19.874;2023-12-22T19:33:38;98592.00;;;4.60;100.00
62942;BME280;49042;47.318;19.874;2023-12-22T19:36:42;98596.97;;;4.53;100.00
62942;BME280;49042;47.318;19.874;2023-12-22T19:39:44;98577.31;;;4.93;100.00
62942;BME280;49042;47.318;19.874;2023-12-22T19:42:47;98572.03;;;5.28;100.00
62942;BME280;49042;47.318;19.874;2023-12-22T19:45:50;98576.19;;;5.61;100.00
62942;BME280;49042;47.318;19.874;2023-12-22T19:48:52;98580.66;;;5.28;100.00
62942;BME280;49042;47.318;19.874;2023-12-22T19:51:55;98586.72;;;4.91;100.00
62942;BME280;49042;47.318;19.874;2023-12-22T19:54:58;98585.56;;;4.78;100.00
62942;BME280;49042;47.318;19.874;2023-12-22T19:58:03;98564.69;;;4.70;100.00
62942;BME280;49042;47.318;19.874;2023-12-22T20:01:06;98559.78;;;4.81;100.00
62942;BME280;49042;47.318;19.874;2023-12-22T20:04:08;98566.56;;;4.76;100.00
62942;BME280;49042;47.318;19.874;2023-12-22T20:07:10;98560.31;;;4.66;100.00
62942;BME280;49042;47.318;19.874;2023-12-22T20:10:12;98572.50;;;4.72;100.00
62942;BME280;49042;47.318;19.874;2023-12-22T20:13:14;98559.72;;;4.78;100.00
62942;BME280;49042;47.318;19.874;2023-12-22T20:16:18;98555.81;;;4.96;100.00
62942;BME280;49042;47.318;19.874;2023-12-22T20:19:22;98550.25;;;4.79;100.00
62942;BME280;49042;47.318;19.874;2023-12-22T20:22:24;98525.25;;;5.15;100.00
62942;BME280;49042;47.318;19.874;2023-12-22T20:25:27;98524.88;;;4.98;100.00
62942;BME280;49042;47.318;19.874;2023-12-22T20:28:29;98526.12;;;4.78;100.00
62942;BME280;49042;47.318;19.874;2023-12-22T20:31:32;98518.47;;;4.81;100.00
62942;BME280;49042;47.318;19.874;2023-12-22T20:34:35;98514.37;;;4.91;100.00
62942;BME280;49042;47.318;19.874;2023-12-22T20:37:37;98516.47;;;5.08;100.00
62942;BME280;49042;47.318;19.874;2023-12-22T20:40:39;98521.28;;;4.91;100.00
62942;BME280;49042;47.318;19.874;2023-12-22T20:43:41;98527.00;;;5.18;100.00
62942;BME280;49042;47.318;19.874;2023-12-22T20:46:42;98539.69;;;5.07;100.00
62942;BME280;49042;47.318;19.874;2023-12-22T20:49:44;98542.97;;;4.98;100.00
62942;BME280;49042;47.318;19.874;2023-12-22T20:52:46;98535.53;;;4.75;100.00
62942;BME280;49042;47.318;19.874;2023-12-22T20:55:52;98531.28;;;4.77;100.00
62942;BME280;49042;47.318;19.874;2023-12-22T20:58:54;98535.34;;;4.67;100.00
62942;BME280;49042;47.318;19.874;2023-12-22T21:01:57;98535.91;;;4.92;100.00
62942;BME280;49042;47.318;19.874;2023-12-22T21:04:59;98534.06;;;5.25;100.00
62942;BME280;49042;47.318;19.874;2023-12-22T21:08:01;98524.16;;;5.05;100.00
62942;BME280;49042;47.318;19.874;2023-12-22T21:11:03;98522.31;;;4.99;100.00
62942;BME280;49042;47.318;19.874;2023-12-22T21:14:05;98518.84;;;4.99;100.00
62942;BME280;49042;47.318;19.874;2023-12-22T21:17:08;98510.44;;;5.09;100.00
62942;BME280;49042;47.318;19.874;2023-12-22T21:20:10;98502.44;;;4.97;100.00
62942;BME280;49042;47.318;19.874;2023-12-22T21:23:12;98489.47;;;4.95;100.00
62942;BME280;49042;47.318;19.874;2023-12-22T21:26:20;98491.16;;;4.93;100.00
62942;BME280;49042;47.318;19.874;2023-12-22T21:29:30;98492.06;;;4.95;100.00
62942;BME280;49042;47.318;19.874;2023-12-22T21:32:32;98486.31;;;5.07;100.00
62942;BME280;49042;47.318;19.874;2023-12-22T21:35:34;98484.56;;;5.06;100.00
62942;BME280;49042;47.318;19.874;2023-12-22T21:38:36;98479.97;;;4.92;100.00
62942;BME280;49042;47.318;19.874;2023-12-22T21:41:38;98483.38;;;4.91;100.00
62942;BME280;49042;47.318;19.874;2023-12-22T21:44:40;98491.63;;;4.75;100.00
62942;BME280;49042;47.318;19.874;2023-12-22T21:47:45;98476.50;;;4.92;100.00
62942;BME280;49042;47.318;19.874;2023-12-22T21:50:47;98477.06;;;4.78;100.00
62942;BME280;49042;47.318;19.874;2023-12-22T21:53:49;98479.81;;;4.86;100.00
62942;BME280;49042;47.318;19.874;2023-12-22T21:56:51;98501.56;;;4.95;100.00
62942;BME280;49042;47.318;19.874;2023-12-22T21:59:53;98506.53;;;4.87;100.00
62942;BME280;49042;47.318;19.874;2023-12-22T22:02:54;98504.97;;;4.95;100.00
62942;BME280;49042;47.318;19.874;2023-12-22T22:05:56;98511.12;;;5.00;100.00
62942;BME280;49042;47.318;19.874;2023-12-22T22:08:58;98530.00;;;4.96;100.00
62942;BME280;49042;47.318;19.874;2023-12-22T22:11:59;98532.56;;;4.95;100.00
62942;BME280;49042;47.318;19.874;2023-12-22T22:15:01;98524.94;;;5.02;100.00
62942;BME280;49042;47.318;19.874;2023-12-22T22:18:04;98522.59;;;5.13;100.00